createdAt,value
2023-04-29T00:01:07.530Z,9.27
2023-04-29T00:06:11.822Z,13.85
2023-04-29T00:11:14.568Z,16.23
2023-04-29T00:16:18.835Z,21.48
2023-04-29T00:26:27.249Z,14.73
2023-04-29T00:31:33.149Z,13.73
2023-04-29T00:36:37.365Z,10.90
2023-04-29T00:41:40.606Z,15.80
2023-04-29T00:46:43.618Z,12.95
2023-04-29T00:51:46.412Z,12.48
2023-04-29T00:56:50.918Z,14.77
2023-04-29T01:01:54.311Z,13.90
2023-04-29T01:07:15.663Z,10.80
2023-04-29T01:12:36.928Z,13.73
2023-04-29T01:17:54.559Z,11.90
2023-04-29T01:28:21.995Z,17.88
2023-04-29T01:33:44.884Z,17.65
2023-04-29T01:39:03.707Z,14.32
2023-04-29T01:44:09.060Z,18.58
2023-04-29T01:49:13.199Z,27.13
2023-04-29T01:54:16.271Z,18.73
2023-04-29T01:59:21.184Z,15.25
2023-04-29T02:04:29.564Z,20.58
2023-04-29T02:09:32.723Z,27.38
2023-04-29T02:14:43.110Z,24.55
2023-04-29T02:19:46.180Z,18.13
2023-04-29T02:24:49.031Z,19.80
2023-04-29T02:29:52.126Z,17.25
2023-04-29T02:34:54.935Z,14.82
2023-04-29T02:39:57.834Z,13.57
2023-04-29T02:45:01.425Z,18.95
2023-04-29T02:50:06.986Z,15.07
2023-04-29T02:55:10.228Z,9.93
2023-04-29T03:00:13.633Z,9.98
2023-04-29T03:05:16.490Z,10.35
2023-04-29T03:10:19.674Z,9.95
2023-04-29T03:15:22.728Z,3.80
2023-04-29T03:20:27.599Z,7.00
2023-04-29T03:25:30.586Z,11.60
2023-04-29T03:30:33.636Z,6.85
2023-04-29T03:35:36.455Z,9.98
2023-04-29T03:41:05.966Z,9.30
2023-04-29T03:46:08.595Z,16.13
2023-04-29T03:51:12.025Z,11.13
2023-04-29T03:56:17.271Z,11.27
2023-04-29T04:01:21.082Z,18.55
2023-04-29T04:11:28.605Z,20.45
2023-04-29T04:16:33.968Z,14.10
2023-04-29T04:21:37.903Z,10.52
2023-04-29T04:26:44.332Z,13.18
2023-04-29T04:32:07.309Z,10.32
2023-04-29T04:37:12.212Z,9.70
2023-04-29T04:42:15.932Z,12.52
2023-04-29T04:47:19.126Z,13.02
2023-04-29T04:52:26.953Z,13.30
2023-04-29T04:57:40.093Z,20.73
2023-04-29T05:02:43.084Z,22.98
2023-04-29T05:07:46.132Z,18.15
2023-04-29T05:17:51.989Z,19.02
2023-04-29T05:22:54.938Z,16.15
2023-04-29T05:27:58.922Z,17.25
2023-04-29T05:33:05.666Z,10.10
2023-04-29T05:38:08.821Z,21.23
2023-04-29T05:43:15.026Z,14.93
2023-04-29T05:53:20.031Z,18.52
2023-04-29T05:58:24.023Z,18.23
2023-04-29T06:03:26.826Z,17.75
2023-04-29T06:08:53.605Z,15.13
2023-04-29T06:14:01.523Z,19.98
2023-04-29T06:19:04.694Z,18.77
2023-04-29T06:24:08.004Z,21.20
2023-04-29T06:29:11.423Z,17.40
2023-04-29T06:34:14.579Z,17.65
2023-04-29T06:44:56.165Z,17.58
2023-04-29T06:50:14.042Z,16.95
2023-04-29T06:55:17.298Z,18.83
2023-04-29T07:00:27.189Z,16.52
2023-04-29T07:05:31.629Z,16.77
2023-04-29T07:10:53.862Z,18.83
2023-04-29T07:15:59.452Z,10.93
2023-04-29T07:21:04.091Z,19.50
2023-04-29T07:26:11.532Z,15.52
2023-04-29T07:31:14.796Z,16.42
2023-04-29T07:36:17.736Z,14.85
2023-04-29T07:41:20.662Z,16.73
2023-04-29T07:46:24.478Z,15.32
2023-04-29T07:51:29.307Z,13.20
2023-04-29T07:56:33.488Z,14.32
2023-04-29T08:01:38.523Z,17.40
2023-04-29T08:06:42.089Z,12.88
2023-04-29T08:11:48.578Z,12.70
2023-04-29T08:16:51.515Z,15.65
2023-04-29T08:21:55.070Z,11.93
2023-04-29T08:26:59.211Z,11.45
2023-04-29T08:32:02.348Z,10.40
2023-04-29T08:37:05.532Z,12.55
2023-04-29T08:42:10.345Z,13.60
2023-04-29T08:47:14.492Z,8.77
2023-04-29T08:52:18.622Z,13.43
2023-04-29T08:57:22.645Z,9.98
2023-04-29T09:02:26.649Z,9.25
2023-04-29T09:07:31.757Z,12.00
2023-04-29T09:12:36.556Z,11.93
2023-04-29T09:17:44.703Z,16.00
2023-04-29T09:22:52.821Z,8.23
2023-04-29T09:27:56.278Z,12.00
2023-04-29T09:33:10.100Z,8.13
2023-04-29T09:38:16.702Z,10.68
2023-04-29T09:43:19.972Z,8.32
2023-04-29T09:48:23.690Z,9.00
2023-04-29T09:53:31.929Z,16.20
2023-04-29T09:58:38.202Z,9.23
2023-04-29T10:03:44.080Z,14.77
2023-04-29T10:08:48.753Z,8.75
2023-04-29T10:13:52.986Z,13.98
2023-04-29T10:18:57.472Z,13.02
2023-04-29T10:24:02.796Z,9.25
2023-04-29T10:29:06.042Z,10.93
2023-04-29T10:34:09.084Z,16.15
2023-04-29T10:39:24.341Z,8.75
2023-04-29T10:44:27.101Z,10.65
2023-04-29T10:54:40.409Z,9.45
2023-04-29T10:59:43.155Z,8.75
2023-04-29T11:05:12.801Z,7.68
2023-04-29T11:10:15.952Z,8.60
2023-04-29T11:15:18.878Z,7.35
2023-04-29T11:20:21.773Z,12.13
2023-04-29T11:30:30.235Z,11.00
2023-04-29T11:35:51.718Z,9.38
2023-04-29T11:41:15.923Z,13.32
2023-04-29T11:46:19.027Z,10.98
2023-04-29T11:51:22.911Z,17.10
2023-04-29T11:56:26.217Z,10.13
2023-04-29T12:01:29.298Z,14.23
2023-04-29T12:11:37.806Z,10.77
2023-04-29T12:16:44.480Z,6.57
2023-04-29T12:21:50.557Z,12.18
2023-04-29T12:26:55.092Z,9.85
2023-04-29T12:31:58.807Z,13.43
2023-04-29T12:37:59.270Z,8.27
2023-04-29T12:43:44.333Z,9.70
2023-04-29T12:49:02.622Z,12.85
2023-04-29T12:54:07.621Z,9.45
2023-04-29T12:59:13.149Z,7.60
2023-04-29T13:04:16.218Z,10.20
2023-04-29T13:09:19.294Z,10.23
2023-04-29T13:19:41.191Z,6.05
2023-04-29T13:24:53.010Z,11.00
2023-04-29T13:34:59.422Z,15.85
2023-04-29T13:40:02.431Z,14.48
2023-04-29T13:45:06.606Z,12.43
2023-04-29T13:50:47.160Z,14.98
2023-04-29T14:05:47.730Z,8.88
2023-04-29T14:10:50.893Z,8.30
2023-04-29T14:15:54.941Z,10.93
2023-04-29T14:20:59.892Z,9.52
2023-04-29T14:31:28.585Z,10.18
2023-04-29T14:36:34.734Z,7.03
2023-04-29T14:41:37.802Z,15.48
2023-04-29T14:46:41.102Z,6.15
2023-04-29T14:51:44.285Z,8.85
2023-04-29T14:56:47.154Z,9.90
2023-04-29T15:01:51.757Z,9.45
2023-04-29T15:07:01.766Z,12.38
2023-04-29T15:12:09.546Z,9.07
2023-04-29T15:17:13.935Z,7.90
2023-04-29T15:22:35.903Z,10.77
2023-04-29T15:27:38.655Z,10.25
2023-04-29T15:32:41.712Z,14.40
2023-04-29T15:37:44.532Z,11.77
2023-04-29T15:42:50.198Z,11.13
2023-04-29T15:47:53.589Z,11.65
2023-04-29T15:52:59.744Z,9.18
2023-04-29T15:58:02.750Z,6.43
2023-04-29T16:03:05.749Z,16.67
2023-04-29T16:08:08.892Z,16.52
2023-04-29T16:13:11.896Z,14.85
2023-04-29T16:18:14.950Z,12.95
2023-04-29T16:23:18.123Z,15.85
2023-04-29T16:28:21.658Z,14.43
2023-04-29T16:33:24.433Z,19.13
2023-04-29T16:38:30.004Z,21.80
2023-04-29T16:43:32.930Z,18.17
2023-04-29T16:48:35.994Z,20.88
2023-04-29T16:53:38.633Z,20.67
2023-04-29T16:58:41.650Z,21.70
2023-04-29T17:03:44.652Z,22.75
2023-04-29T17:08:50.043Z,24.50
2023-04-29T17:13:55.254Z,24.35
2023-04-29T17:18:58.336Z,29.58
2023-04-29T17:24:04.102Z,36.88
2023-04-29T17:29:18.259Z,29.63
2023-04-29T17:34:26.071Z,26.42
2023-04-29T17:39:36.964Z,21.48
2023-04-29T17:44:54.366Z,20.15
2023-04-29T17:50:00.316Z,20.85
2023-04-29T17:55:07.288Z,33.05
2023-04-29T18:00:11.504Z,29.80
2023-04-29T18:05:14.703Z,27.35
2023-04-29T18:10:17.673Z,19.15
2023-04-29T18:15:22.607Z,21.48
2023-04-29T18:20:25.775Z,19.98
2023-04-29T18:30:32.321Z,25.90
2023-04-29T18:35:35.240Z,21.67
2023-04-29T18:40:38.318Z,24.45
2023-04-29T18:45:41.498Z,16.83
2023-04-29T18:50:44.730Z,17.58
2023-04-29T18:55:47.813Z,15.82
2023-04-29T19:00:51.426Z,19.40
2023-04-29T19:05:54.625Z,21.42
2023-04-29T19:10:58.671Z,15.48
2023-04-29T19:16:03.343Z,22.65
2023-04-29T19:21:06.345Z,11.77
2023-04-29T19:26:11.330Z,17.95
2023-04-29T19:31:14.048Z,8.02
2023-04-29T19:36:16.929Z,7.20
2023-04-29T19:41:23.706Z,7.18
2023-04-29T19:46:26.617Z,8.70
2023-04-29T19:51:29.705Z,8.50
2023-04-29T19:56:32.495Z,14.13
2023-04-29T20:01:35.426Z,10.68
2023-04-29T20:06:38.580Z,10.02
2023-04-29T20:11:41.539Z,12.10
2023-04-29T20:16:44.412Z,11.65
2023-04-29T20:21:47.203Z,13.10
2023-04-29T20:26:49.955Z,11.25
2023-04-29T20:31:53.064Z,12.88
2023-04-29T20:36:56.175Z,7.40
2023-04-29T20:41:58.955Z,12.70
2023-04-29T20:47:02.188Z,11.07
2023-04-29T20:52:08.128Z,14.57
2023-04-29T20:57:10.940Z,11.63
2023-04-29T21:02:13.719Z,12.23
2023-04-29T21:07:16.583Z,13.13
2023-04-29T21:12:19.377Z,10.27
2023-04-29T21:17:22.372Z,10.63
2023-04-29T21:22:25.238Z,12.27
2023-04-29T21:27:28.086Z,8.23
2023-04-29T21:32:31.117Z,9.90
2023-04-29T21:37:34.260Z,9.52
2023-04-29T21:42:37.290Z,11.38
2023-04-29T21:47:40.347Z,11.80
2023-04-29T21:52:43.622Z,10.88
2023-04-29T21:57:46.433Z,11.20
2023-04-29T22:02:49.215Z,12.90
2023-04-29T22:07:52.014Z,16.25
2023-04-29T22:12:54.844Z,9.98
2023-04-29T22:17:58.084Z,12.43
2023-04-29T22:23:00.979Z,13.98
2023-04-29T22:28:03.885Z,10.93
2023-04-29T22:33:06.692Z,14.32
2023-04-29T22:38:10.021Z,18.73
2023-04-29T22:43:12.857Z,17.65
2023-04-29T22:48:15.749Z,17.23
2023-04-29T22:53:18.814Z,21.40
2023-04-29T22:58:22.211Z,25.58
2023-04-29T23:03:25.588Z,28.00
2023-04-29T23:08:28.874Z,23.90
2023-04-29T23:13:32.283Z,21.98
2023-04-29T23:18:35.120Z,17.52
2023-04-29T23:23:37.879Z,19.73
2023-04-29T23:28:41.298Z,20.42
2023-04-29T23:33:44.525Z,17.90
2023-04-29T23:38:47.658Z,18.48
2023-04-29T23:43:50.605Z,17.00
2023-04-29T23:48:53.436Z,15.90
2023-04-29T23:53:56.076Z,21.25
2023-04-29T23:58:58.802Z,16.65
